sensor_id;sensor_type;location;lat;lon;timestamp;pressure;altitude;pressure_sealevel;temperature
50496;BMP280;38806;51.554;5.704;2022-10-17T00:01:19;100574.97;;;12.72
50496;BMP280;38806;51.554;5.704;2022-10-17T00:03:19;100529.75;;;12.84
50496;BMP280;38806;51.554;5.704;2022-10-17T00:05:20;100351.91;;;13.34
50496;BMP280;38806;51.554;5.704;2022-10-17T00:07:20;100366.19;;;13.29
50496;BMP280;38806;51.554;5.704;2022-10-17T00:09:20;100249.84;;;13.65
50496;BMP280;38806;51.554;5.704;2022-10-17T00:11:22;100341.28;;;13.42
50496;BMP280;38806;51.554;5.704;2022-10-17T00:13:23;100223.41;;;13.77
50496;BMP280;38806;51.554;5.704;2022-10-17T00:15:23;100180.94;;;13.90
50496;BMP280;38806;51.554;5.704;2022-10-17T00:17:23;100213.97;;;13.83
50496;BMP280;38806;51.554;5.704;2022-10-17T00:19:23;100248.84;;;13.68
50496;BMP280;38806;51.554;5.704;2022-10-17T00:21:24;100189.16;;;13.85
50496;BMP280;38806;51.554;5.704;2022-10-17T00:23:25;100230.03;;;13.76
50496;BMP280;38806;51.554;5.704;2022-10-17T00:25:27;100171.38;;;13.89
50496;BMP280;38806;51.554;5.704;2022-10-17T00:27:27;100175.75;;;13.92
50496;BMP280;38806;51.554;5.704;2022-10-17T00:29:28;100166.69;;;13.90
50496;BMP280;38806;51.554;5.704;2022-10-17T00:31:28;100275.91;;;13.62
50496;BMP280;38806;51.554;5.704;2022-10-17T00:33:29;100189.38;;;13.87
50496;BMP280;38806;51.554;5.704;2022-10-17T00:35:30;100163.91;;;13.95
50496;BMP280;38806;51.554;5.704;2022-10-17T00:37:31;100101.13;;;14.16
50496;BMP280;38806;51.554;5.704;2022-10-17T00:39:31;100127.53;;;14.10
50496;BMP280;38806;51.554;5.704;2022-10-17T00:41:32;100147.09;;;14.02
50496;BMP280;38806;51.554;5.704;2022-10-17T00:43:52;100164.84;;;13.98
50496;BMP280;38806;51.554;5.704;2022-10-17T00:45:53;100163.41;;;13.97
50496;BMP280;38806;51.554;5.704;2022-10-17T00:48:04;100118.69;;;14.09
50496;BMP280;38806;51.554;5.704;2022-10-17T00:50:06;100120.66;;;14.09
50496;BMP280;38806;51.554;5.704;2022-10-17T00:52:27;100209.00;;;13.87
50496;BMP280;38806;51.554;5.704;2022-10-17T00:54:40;100184.81;;;13.95
50496;BMP280;38806;51.554;5.704;2022-10-17T00:56:42;100263.28;;;13.70
50496;BMP280;38806;51.554;5.704;2022-10-17T00:58:43;100311.38;;;13.59
50496;BMP280;38806;51.554;5.704;2022-10-17T01:00:45;100274.63;;;13.69
50496;BMP280;38806;51.554;5.704;2022-10-17T01:02:46;100205.03;;;13.88
50496;BMP280;38806;51.554;5.704;2022-10-17T01:04:50;100098.09;;;14.19
50496;BMP280;38806;51.554;5.704;2022-10-17T01:06:50;100055.47;;;14.38
50496;BMP280;38806;51.554;5.704;2022-10-17T01:08:51;100109.88;;;14.22
50496;BMP280;38806;51.554;5.704;2022-10-17T01:17:46;100157.28;;;14.10
50496;BMP280;38806;51.554;5.704;2022-10-17T01:20:18;100171.09;;;14.06
50496;BMP280;38806;51.554;5.704;2022-10-17T01:24:40;100121.41;;;14.22
50496;BMP280;38806;51.554;5.704;2022-10-17T01:27:28;100153.03;;;14.14
50496;BMP280;38806;51.554;5.704;2022-10-17T01:31:45;100109.44;;;14.31
50496;BMP280;38806;51.554;5.704;2022-10-17T01:33:58;100033.47;;;14.55
50496;BMP280;38806;51.554;5.704;2022-10-17T01:36:22;100027.75;;;14.59
50496;BMP280;38806;51.554;5.704;2022-10-17T01:38:32;100047.31;;;14.52
50496;BMP280;38806;51.554;5.704;2022-10-17T01:42:58;100049.72;;;14.55
50496;BMP280;38806;51.554;5.704;2022-10-17T01:45:26;100033.88;;;14.59
50496;BMP280;38806;51.554;5.704;2022-10-17T01:47:28;100080.00;;;14.40
50496;BMP280;38806;51.554;5.704;2022-10-17T01:49:30;100045.22;;;14.58
50496;BMP280;38806;51.554;5.704;2022-10-17T01:51:36;100060.84;;;14.52
50496;BMP280;38806;51.554;5.704;2022-10-17T01:53:45;100013.56;;;14.66
50496;BMP280;38806;51.554;5.704;2022-10-17T01:55:50;100002.63;;;14.71
50496;BMP280;38806;51.554;5.704;2022-10-17T01:57:58;99971.16;;;14.82
50496;BMP280;38806;51.554;5.704;2022-10-17T02:00:03;99948.09;;;14.88
50496;BMP280;38806;51.554;5.704;2022-10-17T02:02:05;100067.41;;;14.56
50496;BMP280;38806;51.554;5.704;2022-10-17T02:04:07;99981.03;;;14.79
50496;BMP280;38806;51.554;5.704;2022-10-17T02:06:09;99931.72;;;14.94
50496;BMP280;38806;51.554;5.704;2022-10-17T02:08:09;99932.63;;;14.96
50496;BMP280;38806;51.554;5.704;2022-10-17T02:10:18;99966.13;;;14.86
50496;BMP280;38806;51.554;5.704;2022-10-17T02:14:59;100032.38;;;14.71
50496;BMP280;38806;51.554;5.704;2022-10-17T02:17:07;99937.75;;;15.00
50496;BMP280;38806;51.554;5.704;2022-10-17T02:19:25;100022.19;;;14.78
50496;BMP280;38806;51.554;5.704;2022-10-17T02:26:51;99986.94;;;14.91
50496;BMP280;38806;51.554;5.704;2022-10-17T02:29:08;100018.41;;;14.81
50496;BMP280;38806;51.554;5.704;2022-10-17T02:31:21;100000.47;;;14.91
50496;BMP280;38806;51.554;5.704;2022-10-17T02:33:43;100058.41;;;14.74
50496;BMP280;38806;51.554;5.704;2022-10-17T02:35:48;99978.84;;;14.98
50496;BMP280;38806;51.554;5.704;2022-10-17T02:37:49;99986.25;;;14.98
50496;BMP280;38806;51.554;5.704;2022-10-17T02:39:50;99975.81;;;15.02
50496;BMP280;38806;51.554;5.704;2022-10-17T02:41:52;99960.38;;;15.10
50496;BMP280;38806;51.554;5.704;2022-10-17T02:43:54;100003.75;;;14.97
50496;BMP280;38806;51.554;5.704;2022-10-17T02:45:55;100013.69;;;14.94
50496;BMP280;38806;51.554;5.704;2022-10-17T02:48:09;100036.88;;;14.90
50496;BMP280;38806;51.554;5.704;2022-10-17T02:50:11;100095.38;;;14.72
50496;BMP280;38806;51.554;5.704;2022-10-17T02:52:15;100064.09;;;14.84
50496;BMP280;38806;51.554;5.704;2022-10-17T02:54:25;100023.78;;;14.94
50496;BMP280;38806;51.554;5.704;2022-10-17T02:56:28;100057.44;;;14.85
50496;BMP280;38806;51.554;5.704;2022-10-17T02:58:31;100124.00;;;14.67
50496;BMP280;38806;51.554;5.704;2022-10-17T03:00:33;100133.91;;;14.65
50496;BMP280;38806;51.554;5.704;2022-10-17T03:02:41;100047.53;;;14.88
50496;BMP280;38806;51.554;5.704;2022-10-17T03:04:43;100040.41;;;14.98
50496;BMP280;38806;51.554;5.704;2022-10-17T03:06:45;100045.63;;;14.96
50496;BMP280;38806;51.554;5.704;2022-10-17T03:08:46;100062.53;;;14.89
50496;BMP280;38806;51.554;5.704;2022-10-17T03:10:46;100031.03;;;14.99
50496;BMP280;38806;51.554;5.704;2022-10-17T03:12:47;100028.53;;;15.01
50496;BMP280;38806;51.554;5.704;2022-10-17T03:14:47;100040.41;;;14.98
50496;BMP280;38806;51.554;5.704;2022-10-17T03:16:47;100109.22;;;14.82
50496;BMP280;38806;51.554;5.704;2022-10-17T03:18:48;100065.84;;;14.95
50496;BMP280;38806;51.554;5.704;2022-10-17T03:20:48;100035.41;;;15.02
50496;BMP280;38806;51.554;5.704;2022-10-17T03:22:48;100029.66;;;15.05
50496;BMP280;38806;51.554;5.704;2022-10-17T03:24:49;100081.88;;;14.93
50496;BMP280;38806;51.554;5.704;2022-10-17T03:26:49;100064.78;;;14.98
50496;BMP280;38806;51.554;5.704;2022-10-17T03:28:49;100017.63;;;15.14
50496;BMP280;38806;51.554;5.704;2022-10-17T03:30:50;100016.03;;;15.19
50496;BMP280;38806;51.554;5.704;2022-10-17T03:32:50;100024.91;;;15.19
50496;BMP280;38806;51.554;5.704;2022-10-17T03:34:50;100022.91;;;15.20
50496;BMP280;38806;51.554;5.704;2022-10-17T03:36:50;100015.91;;;15.24
50496;BMP280;38806;51.554;5.704;2022-10-17T03:38:54;99996.28;;;15.31
50496;BMP280;38806;51.554;5.704;2022-10-17T03:40:55;100044.41;;;15.18
50496;BMP280;38806;51.554;5.704;2022-10-17T03:42:55;100092.69;;;15.06
50496;BMP280;38806;51.554;5.704;2022-10-17T03:44:56;100066.22;;;15.12
50496;BMP280;38806;51.554;5.704;2022-10-17T03:46:56;100047.50;;;15.22
50496;BMP280;38806;51.554;5.704;2022-10-17T03:48:57;100058.69;;;15.18
50496;BMP280;38806;51.554;5.704;2022-10-17T03:51:02;100072.00;;;15.16
50496;BMP280;38806;51.554;5.704;2022-10-17T03:53:03;100122.25;;;15.04
50496;BMP280;38806;51.554;5.704;2022-10-17T03:55:03;100125.50;;;15.02
50496;BMP280;38806;51.554;5.704;2022-10-17T03:57:04;100108.38;;;15.07
50496;BMP280;38806;51.554;5.704;2022-10-17T03:59:04;100088.56;;;15.13
50496;BMP280;38806;51.554;5.704;2022-10-17T04:01:06;100106.09;;;15.12
50496;BMP280;38806;51.554;5.704;2022-10-17T04:03:06;100114.34;;;15.06
50496;BMP280;38806;51.554;5.704;2022-10-17T04:05:07;100086.28;;;15.17
50496;BMP280;38806;51.554;5.704;2022-10-17T04:07:07;100023.25;;;15.37
50496;BMP280;38806;51.554;5.704;2022-10-17T04:09:09;100040.03;;;15.35
50496;BMP280;38806;51.554;5.704;2022-10-17T04:11:13;99993.34;;;15.50
50496;BMP280;38806;51.554;5.704;2022-10-17T04:13:13;99992.09;;;15.51
50496;BMP280;38806;51.554;5.704;2022-10-17T04:15:14;100023.31;;;15.44
50496;BMP280;38806;51.554;5.704;2022-10-17T04:17:14;100022.78;;;15.46
50496;BMP280;38806;51.554;5.704;2022-10-17T04:19:14;100003.47;;;15.50
50496;BMP280;38806;51.554;5.704;2022-10-17T04:21:14;99964.88;;;15.64
50496;BMP280;38806;51.554;5.704;2022-10-17T04:23:15;99976.97;;;15.63
50496;BMP280;38806;51.554;5.704;2022-10-17T04:25:15;99965.81;;;15.67
50496;BMP280;38806;51.554;5.704;2022-10-17T04:27:16;99921.41;;;15.85
50496;BMP280;38806;51.554;5.704;2022-10-17T04:29:17;99983.19;;;15.71
50496;BMP280;38806;51.554;5.704;2022-10-17T04:31:17;99923.28;;;15.90
50496;BMP280;38806;51.554;5.704;2022-10-17T04:33:17;99929.41;;;15.91
50496;BMP280;38806;51.554;5.704;2022-10-17T04:35:18;99919.47;;;15.93
50496;BMP280;38806;51.554;5.704;2022-10-17T04:37:18;99903.06;;;15.99
50496;BMP280;38806;51.554;5.704;2022-10-17T04:39:18;99920.41;;;16.03
50496;BMP280;38806;51.554;5.704;2022-10-17T04:41:19;99927.09;;;16.02
50496;BMP280;38806;51.554;5.704;2022-10-17T04:43:19;99948.63;;;16.00
50496;BMP280;38806;51.554;5.704;2022-10-17T04:45:19;99925.13;;;16.10
50496;BMP280;38806;51.554;5.704;2022-10-17T04:47:19;99938.88;;;16.05
50496;BMP280;38806;51.554;5.704;2022-10-17T04:49:20;99944.66;;;16.09
50496;BMP280;38806;51.554;5.704;2022-10-17T04:51:20;99955.16;;;16.05
50496;BMP280;38806;51.554;5.704;2022-10-17T04:53:22;99981.91;;;16.01
50496;BMP280;38806;51.554;5.704;2022-10-17T04:55:22;99983.31;;;16.02
50496;BMP280;38806;51.554;5.704;2022-10-17T04:57:22;100000.16;;;16.00
50496;BMP280;38806;51.554;5.704;2022-10-17T04:59:23;99965.28;;;16.12
50496;BMP280;38806;51.554;5.704;2022-10-17T05:01:24;99973.44;;;16.12
50496;BMP280;38806;51.554;5.704;2022-10-17T05:03:25;99979.06;;;16.14
50496;BMP280;38806;51.554;5.704;2022-10-17T05:05:25;99990.63;;;16.14
50496;BMP280;38806;51.554;5.704;2022-10-17T05:07:26;99998.97;;;16.16
50496;BMP280;38806;51.554;5.704;2022-10-17T05:09:26;100027.50;;;16.10
50496;BMP280;38806;51.554;5.704;2022-10-17T05:11:28;100046.84;;;16.06
50496;BMP280;38806;51.554;5.704;2022-10-17T05:13:28;100061.44;;;16.03
50496;BMP280;38806;51.554;5.704;2022-10-17T05:15:29;100054.97;;;16.06
50496;BMP280;38806;51.554;5.704;2022-10-17T05:17:29;100082.25;;;16.01
50496;BMP280;38806;51.554;5.704;2022-10-17T05:19:29;100058.06;;;16.10
50496;BMP280;38806;51.554;5.704;2022-10-17T05:21:30;100074.66;;;16.07
50496;BMP280;38806;51.554;5.704;2022-10-17T05:23:30;100068.91;;;16.10
50496;BMP280;38806;51.554;5.704;2022-10-17T05:25:31;100066.59;;;16.14
50496;BMP280;38806;51.554;5.704;2022-10-17T05:27:31;100037.88;;;16.27
50496;BMP280;38806;51.554;5.704;2022-10-17T05:29:33;100072.38;;;16.18
50496;BMP280;38806;51.554;5.704;2022-10-17T05:31:33;100067.16;;;16.21
50496;BMP280;38806;51.554;5.704;2022-10-17T05:33:34;100066.28;;;16.26
50496;BMP280;38806;51.554;5.704;2022-10-17T05:35:35;100061.03;;;16.28
50496;BMP280;38806;51.554;5.704;2022-10-17T05:37:35;100120.63;;;16.12
50496;BMP280;38806;51.554;5.704;2022-10-17T05:39:35;100107.66;;;16.18
50496;BMP280;38806;51.554;5.704;2022-10-17T05:41:36;100159.81;;;16.04
50496;BMP280;38806;51.554;5.704;2022-10-17T05:43:36;100125.03;;;16.23
50496;BMP280;38806;51.554;5.704;2022-10-17T05:45:36;100198.31;;;16.02
50496;BMP280;38806;51.554;5.704;2022-10-17T05:47:37;100150.31;;;16.18
50496;BMP280;38806;51.554;5.704;2022-10-17T05:49:37;100192.03;;;16.07
50496;BMP280;38806;51.554;5.704;2022-10-17T05:51:37;100149.47;;;16.23
50496;BMP280;38806;51.554;5.704;2022-10-17T05:53:39;100140.44;;;16.28
50496;BMP280;38806;51.554;5.704;2022-10-17T05:55:40;100141.72;;;16.27
50496;BMP280;38806;51.554;5.704;2022-10-17T05:57:40;100185.06;;;16.20
50496;BMP280;38806;51.554;5.704;2022-10-17T05:59:40;100178.78;;;16.25
50496;BMP280;38806;51.554;5.704;2022-10-17T06:01:40;100215.81;;;16.14
50496;BMP280;38806;51.554;5.704;2022-10-17T06:03:41;100195.06;;;16.25
50496;BMP280;38806;51.554;5.704;2022-10-17T06:05:41;100199.22;;;16.26
50496;BMP280;38806;51.554;5.704;2022-10-17T06:07:42;100242.03;;;16.20
50496;BMP280;38806;51.554;5.704;2022-10-17T06:09:42;100269.81;;;16.12
50496;BMP280;38806;51.554;5.704;2022-10-17T06:11:42;100248.59;;;16.24
50496;BMP280;38806;51.554;5.704;2022-10-17T06:13:43;100269.72;;;16.18
50496;BMP280;38806;51.554;5.704;2022-10-17T06:15:44;100280.03;;;16.20
50496;BMP280;38806;51.554;5.704;2022-10-17T06:17:44;100256.59;;;16.30
50496;BMP280;38806;51.554;5.704;2022-10-17T06:19:44;100245.59;;;16.35
50496;BMP280;38806;51.554;5.704;2022-10-17T06:21:44;100196.69;;;16.56
50496;BMP280;38806;51.554;5.704;2022-10-17T06:23:45;100220.75;;;16.52
50496;BMP280;38806;51.554;5.704;2022-10-17T06:25:45;100197.47;;;16.64
50496;BMP280;38806;51.554;5.704;2022-10-17T06:27:45;100158.22;;;16.80
50496;BMP280;38806;51.554;5.704;2022-10-17T06:29:46;100181.78;;;16.78
50496;BMP280;38806;51.554;5.704;2022-10-17T06:31:47;100219.75;;;16.70
50496;BMP280;38806;51.554;5.704;2022-10-17T06:33:47;100206.22;;;16.78
50496;BMP280;38806;51.554;5.704;2022-10-17T06:35:54;100212.38;;;16.78
50496;BMP280;38806;51.554;5.704;2022-10-17T06:37:54;100190.72;;;16.94
50496;BMP280;38806;51.554;5.704;2022-10-17T06:39:55;100201.59;;;16.94
50496;BMP280;38806;51.554;5.704;2022-10-17T06:41:55;100194.53;;;16.98
50496;BMP280;38806;51.554;5.704;2022-10-17T06:43:55;100211.53;;;16.99
50496;BMP280;38806;51.554;5.704;2022-10-17T06:45:56;100195.66;;;17.10
50496;BMP280;38806;51.554;5.704;2022-10-17T06:47:56;100194.56;;;17.13
50496;BMP280;38806;51.554;5.704;2022-10-17T06:49:56;100214.16;;;17.19
50496;BMP280;38806;51.554;5.704;2022-10-17T06:51:56;100218.69;;;17.24
50496;BMP280;38806;51.554;5.704;2022-10-17T06:53:57;100259.63;;;17.19
50496;BMP280;38806;51.554;5.704;2022-10-17T06:55:57;100250.44;;;17.30
50496;BMP280;38806;51.554;5.704;2022-10-17T06:58:02;100254.97;;;17.35
50496;BMP280;38806;51.554;5.704;2022-10-17T07:00:03;100230.53;;;17.50
50496;BMP280;38806;51.554;5.704;2022-10-17T07:02:05;100259.53;;;17.47
50496;BMP280;38806;51.554;5.704;2022-10-17T07:04:05;100228.38;;;17.64
50496;BMP280;38806;51.554;5.704;2022-10-17T07:06:06;100258.09;;;17.61
50496;BMP280;38806;51.554;5.704;2022-10-17T07:08:06;100233.09;;;17.78
50496;BMP280;38806;51.554;5.704;2022-10-17T07:10:07;100283.31;;;17.70
50496;BMP280;38806;51.554;5.704;2022-10-17T07:12:08;100263.75;;;17.79
50496;BMP280;38806;51.554;5.704;2022-10-17T07:14:11;100284.44;;;17.82
50496;BMP280;38806;51.554;5.704;2022-10-17T07:16:12;100306.00;;;17.72
50496;BMP280;38806;51.554;5.704;2022-10-17T07:18:12;100261.03;;;17.94
50496;BMP280;38806;51.554;5.704;2022-10-17T07:20:13;100257.59;;;18.01
50496;BMP280;38806;51.554;5.704;2022-10-17T07:22:13;100328.72;;;17.90
50496;BMP280;38806;51.554;5.704;2022-10-17T07:24:14;100310.75;;;18.02
50496;BMP280;38806;51.554;5.704;2022-10-17T07:26:15;100326.91;;;18.08
50496;BMP280;38806;51.554;5.704;2022-10-17T07:28:16;100340.69;;;18.10
50496;BMP280;38806;51.554;5.704;2022-10-17T07:30:17;100315.44;;;18.24
50496;BMP280;38806;51.554;5.704;2022-10-17T07:32:18;100350.47;;;18.20
50496;BMP280;38806;51.554;5.704;2022-10-17T07:34:18;100326.16;;;18.38
50496;BMP280;38806;51.554;5.704;2022-10-17T07:36:19;100371.56;;;18.27
50496;BMP280;38806;51.554;5.704;2022-10-17T07:38:19;100378.09;;;18.32
50496;BMP280;38806;51.554;5.704;2022-10-17T07:40:19;100401.84;;;18.31
50496;BMP280;38806;51.554;5.704;2022-10-17T07:42:20;100429.25;;;18.26
50496;BMP280;38806;51.554;5.704;2022-10-17T07:44:20;100504.53;;;18.08
50496;BMP280;38806;51.554;5.704;2022-10-17T07:46:20;100505.28;;;18.09
50496;BMP280;38806;51.554;5.704;2022-10-17T07:48:22;100504.34;;;18.14
50496;BMP280;38806;51.554;5.704;2022-10-17T07:50:23;100517.94;;;18.14
50496;BMP280;38806;51.554;5.704;2022-10-17T07:52:23;100533.59;;;18.21
50496;BMP280;38806;51.554;5.704;2022-10-17T07:54:23;100557.91;;;18.19
50496;BMP280;38806;51.554;5.704;2022-10-17T07:56:24;100548.09;;;18.23
50496;BMP280;38806;51.554;5.704;2022-10-17T07:58:24;100596.56;;;18.17
50496;BMP280;38806;51.554;5.704;2022-10-17T08:00:25;100584.94;;;18.24
50496;BMP280;38806;51.554;5.704;2022-10-17T08:02:26;100572.13;;;18.32
50496;BMP280;38806;51.554;5.704;2022-10-17T08:04:27;100596.06;;;18.26
50496;BMP280;38806;51.554;5.704;2022-10-17T08:06:27;100609.84;;;18.28
50496;BMP280;38806;51.554;5.704;2022-10-17T08:08:27;100611.13;;;18.27
50496;BMP280;38806;51.554;5.704;2022-10-17T08:10:28;100597.91;;;18.39
50496;BMP280;38806;51.554;5.704;2022-10-17T08:12:28;100628.56;;;18.32
50496;BMP280;38806;51.554;5.704;2022-10-17T08:14:31;100586.69;;;18.50
50496;BMP280;38806;51.554;5.704;2022-10-17T08:16:32;100579.66;;;18.62
50496;BMP280;38806;51.554;5.704;2022-10-17T08:18:33;100615.03;;;18.55
50496;BMP280;38806;51.554;5.704;2022-10-17T08:20:33;100617.06;;;18.62
50496;BMP280;38806;51.554;5.704;2022-10-17T08:22:33;100634.66;;;18.61
50496;BMP280;38806;51.554;5.704;2022-10-17T08:24:34;100632.84;;;18.63
50496;BMP280;38806;51.554;5.704;2022-10-17T08:26:34;100632.88;;;18.71
50496;BMP280;38806;51.554;5.704;2022-10-17T08:28:36;100642.88;;;18.76
50496;BMP280;38806;51.554;5.704;2022-10-17T08:30:36;100667.22;;;18.74
50496;BMP280;38806;51.554;5.704;2022-10-17T08:32:37;100697.00;;;18.72
50496;BMP280;38806;51.554;5.704;2022-10-17T08:34:37;100680.50;;;18.85
50496;BMP280;38806;51.554;5.704;2022-10-17T08:36:37;100716.81;;;18.80
50496;BMP280;38806;51.554;5.704;2022-10-17T08:38:38;100757.13;;;18.74
50496;BMP280;38806;51.554;5.704;2022-10-17T08:40:39;100760.25;;;18.78
50496;BMP280;38806;51.554;5.704;2022-10-17T08:42:49;100770.94;;;18.76
50496;BMP280;38806;51.554;5.704;2022-10-17T08:45:05;100798.19;;;18.76
50496;BMP280;38806;51.554;5.704;2022-10-17T08:47:13;100806.88;;;18.74
50496;BMP280;38806;51.554;5.704;2022-10-17T08:49:20;100832.63;;;18.66
50496;BMP280;38806;51.554;5.704;2022-10-17T08:51:30;100842.81;;;18.65
50496;BMP280;38806;51.554;5.704;2022-10-17T08:53:36;100802.59;;;18.79
50496;BMP280;38806;51.554;5.704;2022-10-17T08:55:40;100833.97;;;18.72
50496;BMP280;38806;51.554;5.704;2022-10-17T08:57:42;100802.63;;;18.87
50496;BMP280;38806;51.554;5.704;2022-10-17T08:59:43;100787.03;;;19.02
50496;BMP280;38806;51.554;5.704;2022-10-17T09:01:50;100726.59;;;19.27
50496;BMP280;38806;51.554;5.704;2022-10-17T09:06:25;100731.16;;;19.47
50496;BMP280;38806;51.554;5.704;2022-10-17T09:08:51;100774.03;;;19.39
50496;BMP280;38806;51.554;5.704;2022-10-17T09:11:21;100807.13;;;19.35
50496;BMP280;38806;51.554;5.704;2022-10-17T09:13:31;100820.25;;;19.37
50496;BMP280;38806;51.554;5.704;2022-10-17T09:18:00;100908.69;;;19.13
50496;BMP280;38806;51.554;5.704;2022-10-17T09:20:15;100943.97;;;18.90
50496;BMP280;38806;51.554;5.704;2022-10-17T09:22:22;100917.25;;;18.89
50496;BMP280;38806;51.554;5.704;2022-10-17T09:26:31;100958.97;;;18.55
50496;BMP280;38806;51.554;5.704;2022-10-17T09:28:34;100988.59;;;18.38
50496;BMP280;38806;51.554;5.704;2022-10-17T09:30:43;100980.56;;;18.32
50496;BMP280;38806;51.554;5.704;2022-10-17T09:32:44;101067.66;;;17.98
50496;BMP280;38806;51.554;5.704;2022-10-17T09:34:46;100908.34;;;17.64
50496;BMP280;38806;51.554;5.704;2022-10-17T09:36:47;99588.25;;;17.24
50496;BMP280;38806;51.554;5.704;2022-10-17T09:38:51;99716.91;;;17.19
50496;BMP280;38806;51.554;5.704;2022-10-17T09:40:57;99768.91;;;17.16
50496;BMP280;38806;51.554;5.704;2022-10-17T09:43:00;99783.34;;;17.26
50496;BMP280;38806;51.554;5.704;2022-10-17T09:45:21;99797.28;;;17.30
50496;BMP280;38806;51.554;5.704;2022-10-17T09:47:31;99811.41;;;17.29
50496;BMP280;38806;51.554;5.704;2022-10-17T09:49:36;99830.06;;;17.32
50496;BMP280;38806;51.554;5.704;2022-10-17T09:51:37;99850.19;;;17.29
50496;BMP280;38806;51.554;5.704;2022-10-17T09:53:41;99881.69;;;17.40
50496;BMP280;38806;51.554;5.704;2022-10-17T09:55:53;99913.88;;;17.51
50496;BMP280;38806;51.554;5.704;2022-10-17T10:00:03;99944.16;;;17.55
50496;BMP280;38806;51.554;5.704;2022-10-17T10:02:18;99890.66;;;17.65
50496;BMP280;38806;51.554;5.704;2022-10-17T10:04:18;99824.69;;;17.57
50496;BMP280;38806;51.554;5.704;2022-10-17T10:06:19;99819.22;;;17.65
50496;BMP280;38806;51.554;5.704;2022-10-17T10:08:20;99807.16;;;17.43
50496;BMP280;38806;51.554;5.704;2022-10-17T10:10:26;99713.28;;;17.49
50496;BMP280;38806;51.554;5.704;2022-10-17T10:12:31;99605.16;;;17.65
50496;BMP280;38806;51.554;5.704;2022-10-17T10:14:33;99536.13;;;17.78
50496;BMP280;38806;51.554;5.704;2022-10-17T10:16:40;99523.00;;;17.84
50496;BMP280;38806;51.554;5.704;2022-10-17T10:18:42;99492.56;;;17.95
50496;BMP280;38806;51.554;5.704;2022-10-17T10:20:42;99555.88;;;17.78
50496;BMP280;38806;51.554;5.704;2022-10-17T10:23:03;99593.47;;;17.72
50496;BMP280;38806;51.554;5.704;2022-10-17T10:27:17;99645.44;;;17.76
50496;BMP280;38806;51.554;5.704;2022-10-17T10:31:28;99677.78;;;17.72
50496;BMP280;38806;51.554;5.704;2022-10-17T10:33:31;99699.19;;;17.68
50496;BMP280;38806;51.554;5.704;2022-10-17T10:35:34;99694.41;;;17.76
50496;BMP280;38806;51.554;5.704;2022-10-17T10:37:43;99696.41;;;17.76
50496;BMP280;38806;51.554;5.704;2022-10-17T10:39:50;99728.53;;;17.70
50496;BMP280;38806;51.554;5.704;2022-10-17T10:41:51;95692.47;;;18.01
50496;BMP280;38806;51.554;5.704;2022-10-17T10:43:53;95636.75;;;18.00
50496;BMP280;38806;51.554;5.704;2022-10-17T10:45:53;95684.38;;;18.05
50496;BMP280;38806;51.554;5.704;2022-10-17T10:47:56;93560.94;;;18.18
50496;BMP280;38806;51.554;5.704;2022-10-17T10:50:24;93274.38;;;18.21
50496;BMP280;38806;51.554;5.704;2022-10-17T10:52:37;92946.06;;;18.38
50496;BMP280;38806;51.554;5.704;2022-10-17T10:54:49;92693.81;;;18.48
50496;BMP280;38806;51.554;5.704;2022-10-17T10:56:53;92571.38;;;18.35
50496;BMP280;38806;51.554;5.704;2022-10-17T10:59:15;92322.31;;;18.34
50496;BMP280;38806;51.554;5.704;2022-10-17T11:06:18;94499.94;;;18.31
50496;BMP280;38806;51.554;5.704;2022-10-17T11:08:22;95716.19;;;18.41
50496;BMP280;38806;51.554;5.704;2022-10-17T11:10:41;95455.41;;;18.55
50496;BMP280;38806;51.554;5.704;2022-10-17T11:12:58;95040.81;;;18.66
50496;BMP280;38806;51.554;5.704;2022-10-17T11:15:13;94998.69;;;18.75
50496;BMP280;38806;51.554;5.704;2022-10-17T11:19:43;96145.38;;;18.86
50496;BMP280;38806;51.554;5.704;2022-10-17T11:21:48;96553.84;;;18.98
50496;BMP280;38806;51.554;5.704;2022-10-17T11:24:32;96653.13;;;19.21
50496;BMP280;38806;51.554;5.704;2022-10-17T11:26:28;96878.94;;;19.13
50496;BMP280;38806;51.554;5.704;2022-10-17T11:28:31;104583.28;;;19.33
50496;BMP280;38806;51.554;5.704;2022-10-17T11:30:44;104503.16;;;19.27
50496;BMP280;38806;51.554;5.704;2022-10-17T11:32:49;102950.59;;;19.16
50496;BMP280;38806;51.554;5.704;2022-10-17T11:35:20;103544.50;;;19.14
50496;BMP280;38806;51.554;5.704;2022-10-17T11:37:26;103480.75;;;18.96
50496;BMP280;38806;51.554;5.704;2022-10-17T11:39:39;103145.94;;;18.97
50496;BMP280;38806;51.554;5.704;2022-10-17T11:41:45;102935.38;;;18.93
50496;BMP280;38806;51.554;5.704;2022-10-17T11:44:28;102891.78;;;19.04
50496;BMP280;38806;51.554;5.704;2022-10-17T11:46:30;100249.63;;;18.81
50496;BMP280;38806;51.554;5.704;2022-10-17T11:48:40;100248.31;;;18.90
50496;BMP280;38806;51.554;5.704;2022-10-17T11:50:44;83325.38;;;18.69
50496;BMP280;38806;51.554;5.704;2022-10-17T11:52:50;90354.56;;;18.72
50496;BMP280;38806;51.554;5.704;2022-10-17T11:54:55;90282.25;;;18.78
50496;BMP280;38806;51.554;5.704;2022-10-17T11:57:08;90397.94;;;18.83
50496;BMP280;38806;51.554;5.704;2022-10-17T11:59:40;90556.69;;;18.84
50496;BMP280;38806;51.554;5.704;2022-10-17T12:02:01;90666.88;;;18.92
50496;BMP280;38806;51.554;5.704;2022-10-17T12:06:36;92168.75;;;18.87
50496;BMP280;38806;51.554;5.704;2022-10-17T12:09:02;92020.31;;;18.80
50496;BMP280;38806;51.554;5.704;2022-10-17T12:15:29;91822.06;;;18.92
50496;BMP280;38806;51.554;5.704;2022-10-17T12:17:32;90680.84;;;18.86
50496;BMP280;38806;51.554;5.704;2022-10-17T12:19:35;90274.44;;;18.82
50496;BMP280;38806;51.554;5.704;2022-10-17T12:21:56;89840.50;;;18.93
50496;BMP280;38806;51.554;5.704;2022-10-17T12:23:57;86718.84;;;18.84
50496;BMP280;38806;51.554;5.704;2022-10-17T12:25:59;85474.91;;;18.84
50496;BMP280;38806;51.554;5.704;2022-10-17T12:30:24;84307.22;;;18.94
50496;BMP280;38806;51.554;5.704;2022-10-17T12:32:24;84135.81;;;18.98
50496;BMP280;38806;51.554;5.704;2022-10-17T12:34:25;83940.22;;;19.04
50496;BMP280;38806;51.554;5.704;2022-10-17T12:38:26;86261.03;;;19.25
50496;BMP280;38806;51.554;5.704;2022-10-17T12:42:45;86071.78;;;19.34